Ashford, AL

3:48 AM CDT on August 31, 2015 (GMT -0500)
South Dothan | | Change Station
CLOSE
Current Station
Personal Weather Station
Location: Dothan, AL
Elevation: 305 ft
Nearby Weather Stations

Elev 305 ft 31.18 °N, 85.37 °W | Updated 4 minutes ago

Clear
Clear
69.6 °F
Feels Like 69.6 °F
N
1.7
Wind Variable Wind from NE

Today
High -- | Low -- °F
--% Chance of Precip.
Yesterday
High -- | Low -- °F
Precip. -- in
6:16 AM 7:05 PM
Waning Gibbous, 96% visible
Pressure 30.03 in
Visibility 9.0 miles
Clouds Clear
Dew Point 69 °F
Humidity 99%
Rainfall 0.00 in
Snow Depth Not available.
UV 0 out of 12
Pollen 7.30 out of 12
Air Quality Not available.
Flu Activity Not available.
METAR KDHN 310753Z AUTO 01003KT 9SM CLR 21/21 A3004 RMK AO2 SLP169 T02110206
Pressure 30.03 in
Visibility 9.0 miles
Clouds Clear
Dew Point 69 °F
Humidity 99%
Rainfall 0.00 in
Snow Depth Not available.
UV 0 out of 12
Pollen 7.30 out of 12
Air Quality Not available.
Flu Activity Not available.
METAR KDHN 310753Z AUTO 01003KT 9SM CLR 21/21 A3004 RMK AO2 SLP169 T02110206

10-Day Weather Forecast

×

Almanac

Astronomy

Aug. 31, 2015 Rise Set
Actual Time
Civil Twilight
Nautical Twilight
Astronomical Twilight
Moon
Length of Visible Light
Length of Day
Tomorrow will be .
, % of the Moon is Illuminated

Today's Extremes

State Highs State Lows

Community

WunderPhotos

Upload Photos

1,851,220 photos uploaded!

WunderBlogs® & News

Nearby

Air Quality

  Air Quality AQ Index Pollutant
Not available.

Snow Depth

Station Depth Elevation

Earthquake Activity

City Distance Mag. Time & Date
Minimum magnitude displayed is 2.5.

Coastal Water Temperatures

Place Temperature

Stations

Nearby Weather Stations

Station Location Temp. Windchill Dew Point Humidity Wind Precip. Elev Updated Type